sensor_id;sensor_type;location;lat;lon;timestamp;P1;durP1;ratioP1;P2;durP2;ratioP2
12567;SDS011;6349;50.904;6.136;2023-03-11T00:01:50;2.70;;;1.27;;
12567;SDS011;6349;50.904;6.136;2023-03-11T00:03:51;4.73;;;1.20;;
12567;SDS011;6349;50.904;6.136;2023-03-11T00:05:52;2.27;;;1.10;;
12567;SDS011;6349;50.904;6.136;2023-03-11T00:07:53;2.83;;;1.10;;
12567;SDS011;6349;50.904;6.136;2023-03-11T00:09:54;4.60;;;1.40;;
12567;SDS011;6349;50.904;6.136;2023-03-11T00:11:55;3.30;;;1.20;;
12567;SDS011;6349;50.904;6.136;2023-03-11T00:13:55;2.30;;;0.90;;
12567;SDS011;6349;50.904;6.136;2023-03-11T00:15:56;4.50;;;1.30;;
12567;SDS011;6349;50.904;6.136;2023-03-11T00:17:59;3.53;;;1.50;;
12567;SDS011;6349;50.904;6.136;2023-03-11T00:20:00;2.87;;;1.20;;
12567;SDS011;6349;50.904;6.136;2023-03-11T00:22:01;7.10;;;1.20;;
12567;SDS011;6349;50.904;6.136;2023-03-11T00:24:02;3.67;;;1.23;;
12567;SDS011;6349;50.904;6.136;2023-03-11T00:26:03;4.37;;;1.60;;
12567;SDS011;6349;50.904;6.136;2023-03-11T00:28:04;2.00;;;1.20;;
12567;SDS011;6349;50.904;6.136;2023-03-11T00:30:06;4.13;;;1.50;;
12567;SDS011;6349;50.904;6.136;2023-03-11T00:32:08;3.50;;;1.30;;
12567;SDS011;6349;50.904;6.136;2023-03-11T00:34:08;4.80;;;1.97;;
12567;SDS011;6349;50.904;6.136;2023-03-11T00:36:14;2.13;;;1.20;;
12567;SDS011;6349;50.904;6.136;2023-03-11T00:38:23;3.90;;;1.50;;
12567;SDS011;6349;50.904;6.136;2023-03-11T00:40:24;4.70;;;1.30;;
12567;SDS011;6349;50.904;6.136;2023-03-11T00:42:26;3.67;;;1.67;;
12567;SDS011;6349;50.904;6.136;2023-03-11T00:44:26;2.57;;;1.00;;
12567;SDS011;6349;50.904;6.136;2023-03-11T00:46:27;4.40;;;1.47;;
12567;SDS011;6349;50.904;6.136;2023-03-11T00:48:29;3.10;;;1.40;;
12567;SDS011;6349;50.904;6.136;2023-03-11T00:50:31;2.47;;;0.90;;
12567;SDS011;6349;50.904;6.136;2023-03-11T00:52:33;2.10;;;1.10;;
12567;SDS011;6349;50.904;6.136;2023-03-11T00:54:34;2.67;;;1.20;;
12567;SDS011;6349;50.904;6.136;2023-03-11T00:56:34;2.53;;;1.27;;
12567;SDS011;6349;50.904;6.136;2023-03-11T00:58:35;4.00;;;1.40;;
12567;SDS011;6349;50.904;6.136;2023-03-11T01:00:36;4.30;;;1.17;;
12567;SDS011;6349;50.904;6.136;2023-03-11T01:02:37;4.70;;;1.17;;
12567;SDS011;6349;50.904;6.136;2023-03-11T01:04:37;4.73;;;1.60;;
12567;SDS011;6349;50.904;6.136;2023-03-11T01:06:38;4.97;;;1.30;;
12567;SDS011;6349;50.904;6.136;2023-03-11T01:08:39;2.80;;;1.00;;
12567;SDS011;6349;50.904;6.136;2023-03-11T01:10:40;5.10;;;1.50;;
12567;SDS011;6349;50.904;6.136;2023-03-11T01:12:41;4.23;;;1.30;;
12567;SDS011;6349;50.904;6.136;2023-03-11T01:14:42;2.03;;;1.10;;
12567;SDS011;6349;50.904;6.136;2023-03-11T01:16:43;4.23;;;1.40;;
12567;SDS011;6349;50.904;6.136;2023-03-11T01:18:45;2.83;;;1.13;;
12567;SDS011;6349;50.904;6.136;2023-03-11T01:20:46;3.50;;;1.37;;
12567;SDS011;6349;50.904;6.136;2023-03-11T01:22:47;2.07;;;1.00;;
12567;SDS011;6349;50.904;6.136;2023-03-11T01:24:48;5.07;;;1.27;;
12567;SDS011;6349;50.904;6.136;2023-03-11T01:26:49;2.50;;;1.10;;
12567;SDS011;6349;50.904;6.136;2023-03-11T01:28:49;2.20;;;1.07;;
12567;SDS011;6349;50.904;6.136;2023-03-11T01:30:50;2.07;;;1.10;;
12567;SDS011;6349;50.904;6.136;2023-03-11T01:32:51;3.93;;;1.30;;
12567;SDS011;6349;50.904;6.136;2023-03-11T01:34:53;3.17;;;1.17;;
12567;SDS011;6349;50.904;6.136;2023-03-11T01:36:53;3.53;;;1.50;;
12567;SDS011;6349;50.904;6.136;2023-03-11T01:38:54;1.43;;;1.20;;
12567;SDS011;6349;50.904;6.136;2023-03-11T01:40:55;3.37;;;1.20;;
12567;SDS011;6349;50.904;6.136;2023-03-11T01:42:56;2.57;;;1.13;;
12567;SDS011;6349;50.904;6.136;2023-03-11T01:44:57;2.63;;;1.30;;
12567;SDS011;6349;50.904;6.136;2023-03-11T01:49:10;3.23;;;1.50;;
12567;SDS011;6349;50.904;6.136;2023-03-11T01:51:11;5.13;;;1.20;;
12567;SDS011;6349;50.904;6.136;2023-03-11T01:53:14;3.13;;;1.70;;
12567;SDS011;6349;50.904;6.136;2023-03-11T01:55:16;3.70;;;1.53;;
12567;SDS011;6349;50.904;6.136;2023-03-11T01:57:18;3.63;;;1.40;;
12567;SDS011;6349;50.904;6.136;2023-03-11T01:59:26;2.53;;;1.10;;
12567;SDS011;6349;50.904;6.136;2023-03-11T02:01:29;3.73;;;1.40;;
12567;SDS011;6349;50.904;6.136;2023-03-11T02:03:32;2.17;;;1.40;;
12567;SDS011;6349;50.904;6.136;2023-03-11T02:05:35;3.23;;;1.30;;
12567;SDS011;6349;50.904;6.136;2023-03-11T02:07:38;1.93;;;1.13;;
12567;SDS011;6349;50.904;6.136;2023-03-11T02:09:39;3.17;;;1.47;;
12567;SDS011;6349;50.904;6.136;2023-03-11T02:11:40;3.00;;;1.33;;
12567;SDS011;6349;50.904;6.136;2023-03-11T02:13:41;4.07;;;1.50;;
12567;SDS011;6349;50.904;6.136;2023-03-11T02:15:43;4.03;;;1.40;;
12567;SDS011;6349;50.904;6.136;2023-03-11T02:17:44;3.30;;;1.70;;
12567;SDS011;6349;50.904;6.136;2023-03-11T02:22:00;3.37;;;1.50;;
12567;SDS011;6349;50.904;6.136;2023-03-11T02:26:24;2.40;;;1.40;;
12567;SDS011;6349;50.904;6.136;2023-03-11T02:28:33;4.37;;;1.83;;
12567;SDS011;6349;50.904;6.136;2023-03-11T02:30:35;3.90;;;1.80;;
12567;SDS011;6349;50.904;6.136;2023-03-11T02:32:41;3.73;;;1.70;;
12567;SDS011;6349;50.904;6.136;2023-03-11T02:34:44;5.00;;;1.57;;
12567;SDS011;6349;50.904;6.136;2023-03-11T02:36:44;5.63;;;2.03;;
12567;SDS011;6349;50.904;6.136;2023-03-11T02:38:45;4.83;;;1.70;;
12567;SDS011;6349;50.904;6.136;2023-03-11T02:41:01;6.97;;;1.53;;
12567;SDS011;6349;50.904;6.136;2023-03-11T02:43:04;4.63;;;1.80;;
12567;SDS011;6349;50.904;6.136;2023-03-11T02:45:10;4.27;;;1.97;;
12567;SDS011;6349;50.904;6.136;2023-03-11T02:47:12;3.27;;;1.77;;
12567;SDS011;6349;50.904;6.136;2023-03-11T02:49:14;3.47;;;1.70;;
12567;SDS011;6349;50.904;6.136;2023-03-11T02:51:15;4.77;;;2.00;;
12567;SDS011;6349;50.904;6.136;2023-03-11T02:53:16;4.20;;;1.60;;
12567;SDS011;6349;50.904;6.136;2023-03-11T02:55:17;3.33;;;1.70;;
12567;SDS011;6349;50.904;6.136;2023-03-11T02:57:19;3.60;;;1.70;;
12567;SDS011;6349;50.904;6.136;2023-03-11T02:59:19;3.47;;;1.50;;
12567;SDS011;6349;50.904;6.136;2023-03-11T03:01:20;3.37;;;1.63;;
12567;SDS011;6349;50.904;6.136;2023-03-11T03:03:22;2.83;;;1.50;;
12567;SDS011;6349;50.904;6.136;2023-03-11T03:05:22;4.20;;;1.70;;
12567;SDS011;6349;50.904;6.136;2023-03-11T03:07:23;3.83;;;1.77;;
12567;SDS011;6349;50.904;6.136;2023-03-11T03:09:24;3.27;;;1.60;;
12567;SDS011;6349;50.904;6.136;2023-03-11T03:11:24;3.17;;;1.60;;
12567;SDS011;6349;50.904;6.136;2023-03-11T03:13:26;3.93;;;1.90;;
12567;SDS011;6349;50.904;6.136;2023-03-11T03:15:26;4.80;;;1.70;;
12567;SDS011;6349;50.904;6.136;2023-03-11T03:17:27;4.57;;;1.83;;
12567;SDS011;6349;50.904;6.136;2023-03-11T03:19:28;2.67;;;1.53;;
12567;SDS011;6349;50.904;6.136;2023-03-11T03:21:28;2.50;;;1.80;;
12567;SDS011;6349;50.904;6.136;2023-03-11T03:23:29;2.70;;;1.70;;
12567;SDS011;6349;50.904;6.136;2023-03-11T03:25:34;2.60;;;1.60;;
12567;SDS011;6349;50.904;6.136;2023-03-11T03:27:34;4.13;;;1.50;;
12567;SDS011;6349;50.904;6.136;2023-03-11T03:29:35;5.10;;;2.10;;
12567;SDS011;6349;50.904;6.136;2023-03-11T03:31:37;3.20;;;1.80;;
12567;SDS011;6349;50.904;6.136;2023-03-11T03:33:37;4.57;;;2.00;;
12567;SDS011;6349;50.904;6.136;2023-03-11T03:35:40;3.03;;;1.50;;
12567;SDS011;6349;50.904;6.136;2023-03-11T03:37:42;2.50;;;1.50;;
12567;SDS011;6349;50.904;6.136;2023-03-11T03:39:43;4.47;;;1.80;;
12567;SDS011;6349;50.904;6.136;2023-03-11T03:41:43;4.23;;;2.00;;
12567;SDS011;6349;50.904;6.136;2023-03-11T03:43:44;3.13;;;1.67;;
12567;SDS011;6349;50.904;6.136;2023-03-11T03:45:52;2.00;;;1.50;;
12567;SDS011;6349;50.904;6.136;2023-03-11T03:47:55;3.33;;;1.80;;
12567;SDS011;6349;50.904;6.136;2023-03-11T03:49:55;4.57;;;1.70;;
12567;SDS011;6349;50.904;6.136;2023-03-11T03:51:56;4.53;;;2.10;;
12567;SDS011;6349;50.904;6.136;2023-03-11T03:53:57;2.60;;;1.70;;
12567;SDS011;6349;50.904;6.136;2023-03-11T03:55:57;3.63;;;1.50;;
12567;SDS011;6349;50.904;6.136;2023-03-11T03:58:02;5.07;;;1.63;;
12567;SDS011;6349;50.904;6.136;2023-03-11T04:00:03;4.60;;;1.90;;
12567;SDS011;6349;50.904;6.136;2023-03-11T04:02:04;4.77;;;1.57;;
12567;SDS011;6349;50.904;6.136;2023-03-11T04:04:05;4.67;;;1.67;;
12567;SDS011;6349;50.904;6.136;2023-03-11T04:06:10;3.47;;;1.60;;
12567;SDS011;6349;50.904;6.136;2023-03-11T04:08:15;4.50;;;1.60;;
12567;SDS011;6349;50.904;6.136;2023-03-11T04:10:16;3.13;;;1.67;;
12567;SDS011;6349;50.904;6.136;2023-03-11T04:12:17;3.63;;;1.70;;
12567;SDS011;6349;50.904;6.136;2023-03-11T04:14:18;2.97;;;1.43;;
12567;SDS011;6349;50.904;6.136;2023-03-11T04:16:19;3.30;;;1.97;;
12567;SDS011;6349;50.904;6.136;2023-03-11T04:18:21;2.23;;;1.50;;
12567;SDS011;6349;50.904;6.136;2023-03-11T04:20:22;4.13;;;2.00;;
12567;SDS011;6349;50.904;6.136;2023-03-11T04:22:23;3.93;;;1.63;;
12567;SDS011;6349;50.904;6.136;2023-03-11T04:24:24;4.73;;;1.80;;
12567;SDS011;6349;50.904;6.136;2023-03-11T04:26:24;4.53;;;2.00;;
12567;SDS011;6349;50.904;6.136;2023-03-11T04:28:25;3.90;;;1.83;;
12567;SDS011;6349;50.904;6.136;2023-03-11T04:30:26;2.67;;;1.80;;
12567;SDS011;6349;50.904;6.136;2023-03-11T04:32:27;3.93;;;1.90;;
12567;SDS011;6349;50.904;6.136;2023-03-11T04:34:28;4.37;;;1.60;;
12567;SDS011;6349;50.904;6.136;2023-03-11T04:36:28;4.63;;;2.00;;
12567;SDS011;6349;50.904;6.136;2023-03-11T04:38:29;2.80;;;1.80;;
12567;SDS011;6349;50.904;6.136;2023-03-11T04:40:29;4.10;;;2.03;;
12567;SDS011;6349;50.904;6.136;2023-03-11T04:42:30;4.30;;;1.90;;
12567;SDS011;6349;50.904;6.136;2023-03-11T04:44:33;3.17;;;1.90;;
12567;SDS011;6349;50.904;6.136;2023-03-11T04:46:34;3.53;;;1.63;;
12567;SDS011;6349;50.904;6.136;2023-03-11T04:48:35;4.33;;;2.00;;
12567;SDS011;6349;50.904;6.136;2023-03-11T04:50:35;5.27;;;2.00;;
12567;SDS011;6349;50.904;6.136;2023-03-11T04:52:36;2.33;;;1.80;;
12567;SDS011;6349;50.904;6.136;2023-03-11T04:54:37;3.73;;;2.20;;
12567;SDS011;6349;50.904;6.136;2023-03-11T04:56:37;3.60;;;1.90;;
12567;SDS011;6349;50.904;6.136;2023-03-11T04:58:38;3.47;;;1.80;;
12567;SDS011;6349;50.904;6.136;2023-03-11T05:00:39;4.40;;;1.87;;
12567;SDS011;6349;50.904;6.136;2023-03-11T05:02:40;2.90;;;1.87;;
12567;SDS011;6349;50.904;6.136;2023-03-11T05:04:41;3.77;;;2.00;;
12567;SDS011;6349;50.904;6.136;2023-03-11T05:06:42;3.17;;;1.87;;
12567;SDS011;6349;50.904;6.136;2023-03-11T05:08:42;4.13;;;2.13;;
12567;SDS011;6349;50.904;6.136;2023-03-11T05:10:46;3.57;;;2.10;;
12567;SDS011;6349;50.904;6.136;2023-03-11T05:12:48;5.90;;;2.20;;
12567;SDS011;6349;50.904;6.136;2023-03-11T05:14:49;4.60;;;2.00;;
12567;SDS011;6349;50.904;6.136;2023-03-11T05:16:49;3.13;;;1.80;;
12567;SDS011;6349;50.904;6.136;2023-03-11T05:18:50;2.47;;;1.87;;
12567;SDS011;6349;50.904;6.136;2023-03-11T05:20:51;3.53;;;1.80;;
12567;SDS011;6349;50.904;6.136;2023-03-11T05:22:52;4.83;;;1.90;;
12567;SDS011;6349;50.904;6.136;2023-03-11T05:24:53;2.73;;;1.80;;
12567;SDS011;6349;50.904;6.136;2023-03-11T05:26:53;3.27;;;2.20;;
12567;SDS011;6349;50.904;6.136;2023-03-11T05:28:54;3.73;;;2.17;;
12567;SDS011;6349;50.904;6.136;2023-03-11T05:30:55;2.63;;;1.80;;
12567;SDS011;6349;50.904;6.136;2023-03-11T05:32:56;5.33;;;2.03;;
12567;SDS011;6349;50.904;6.136;2023-03-11T05:34:56;3.73;;;2.00;;
12567;SDS011;6349;50.904;6.136;2023-03-11T05:36:57;5.00;;;1.97;;
12567;SDS011;6349;50.904;6.136;2023-03-11T05:38:58;2.17;;;1.97;;
12567;SDS011;6349;50.904;6.136;2023-03-11T05:41:01;3.77;;;2.20;;
12567;SDS011;6349;50.904;6.136;2023-03-11T05:43:01;4.17;;;2.00;;
12567;SDS011;6349;50.904;6.136;2023-03-11T05:45:02;3.13;;;1.90;;
12567;SDS011;6349;50.904;6.136;2023-03-11T05:47:03;3.27;;;1.83;;
12567;SDS011;6349;50.904;6.136;2023-03-11T05:49:04;3.67;;;2.23;;
12567;SDS011;6349;50.904;6.136;2023-03-11T05:51:06;5.93;;;2.03;;
12567;SDS011;6349;50.904;6.136;2023-03-11T05:53:07;2.53;;;1.80;;
12567;SDS011;6349;50.904;6.136;2023-03-11T05:55:08;2.20;;;1.70;;
12567;SDS011;6349;50.904;6.136;2023-03-11T05:57:11;4.43;;;2.20;;
12567;SDS011;6349;50.904;6.136;2023-03-11T05:59:12;3.57;;;1.70;;
12567;SDS011;6349;50.904;6.136;2023-03-11T06:01:15;2.83;;;2.00;;
12567;SDS011;6349;50.904;6.136;2023-03-11T06:03:17;3.50;;;1.90;;
12567;SDS011;6349;50.904;6.136;2023-03-11T06:05:17;3.53;;;1.90;;
12567;SDS011;6349;50.904;6.136;2023-03-11T06:07:18;3.50;;;1.87;;
12567;SDS011;6349;50.904;6.136;2023-03-11T06:09:19;4.87;;;2.10;;
12567;SDS011;6349;50.904;6.136;2023-03-11T06:11:19;4.20;;;1.87;;
12567;SDS011;6349;50.904;6.136;2023-03-11T06:13:22;3.10;;;1.70;;
12567;SDS011;6349;50.904;6.136;2023-03-11T06:15:23;5.13;;;2.00;;
12567;SDS011;6349;50.904;6.136;2023-03-11T06:17:24;2.80;;;2.03;;
12567;SDS011;6349;50.904;6.136;2023-03-11T06:19:25;3.67;;;1.87;;
12567;SDS011;6349;50.904;6.136;2023-03-11T06:21:25;2.57;;;1.73;;
12567;SDS011;6349;50.904;6.136;2023-03-11T06:23:26;3.00;;;1.60;;
12567;SDS011;6349;50.904;6.136;2023-03-11T06:25:28;3.80;;;1.90;;
12567;SDS011;6349;50.904;6.136;2023-03-11T06:27:28;3.37;;;1.93;;
12567;SDS011;6349;50.904;6.136;2023-03-11T06:29:29;3.77;;;1.90;;
12567;SDS011;6349;50.904;6.136;2023-03-11T06:31:30;5.33;;;2.23;;
12567;SDS011;6349;50.904;6.136;2023-03-11T06:33:31;3.47;;;1.77;;
12567;SDS011;6349;50.904;6.136;2023-03-11T06:35:31;2.63;;;1.77;;
12567;SDS011;6349;50.904;6.136;2023-03-11T06:37:34;3.23;;;2.00;;
12567;SDS011;6349;50.904;6.136;2023-03-11T06:39:36;3.67;;;1.90;;
12567;SDS011;6349;50.904;6.136;2023-03-11T06:41:36;2.63;;;1.70;;
12567;SDS011;6349;50.904;6.136;2023-03-11T06:43:37;3.30;;;1.80;;
12567;SDS011;6349;50.904;6.136;2023-03-11T06:45:38;4.90;;;2.13;;
12567;SDS011;6349;50.904;6.136;2023-03-11T06:47:39;3.03;;;1.73;;
12567;SDS011;6349;50.904;6.136;2023-03-11T06:49:40;3.23;;;1.80;;
12567;SDS011;6349;50.904;6.136;2023-03-11T06:51:41;2.93;;;2.07;;
12567;SDS011;6349;50.904;6.136;2023-03-11T06:53:42;3.10;;;2.00;;
12567;SDS011;6349;50.904;6.136;2023-03-11T06:55:43;3.30;;;1.83;;
12567;SDS011;6349;50.904;6.136;2023-03-11T06:57:44;4.03;;;1.87;;
12567;SDS011;6349;50.904;6.136;2023-03-11T06:59:45;3.40;;;2.03;;
12567;SDS011;6349;50.904;6.136;2023-03-11T07:01:45;3.40;;;2.03;;
12567;SDS011;6349;50.904;6.136;2023-03-11T07:03:46;3.23;;;2.10;;
12567;SDS011;6349;50.904;6.136;2023-03-11T07:05:49;3.77;;;1.70;;
12567;SDS011;6349;50.904;6.136;2023-03-11T07:07:52;3.47;;;2.00;;
12567;SDS011;6349;50.904;6.136;2023-03-11T07:09:54;4.00;;;1.93;;
12567;SDS011;6349;50.904;6.136;2023-03-11T07:11:56;2.50;;;1.80;;
12567;SDS011;6349;50.904;6.136;2023-03-11T07:13:57;4.23;;;2.00;;
12567;SDS011;6349;50.904;6.136;2023-03-11T07:15:59;2.37;;;1.93;;
12567;SDS011;6349;50.904;6.136;2023-03-11T07:18:02;4.13;;;1.90;;
12567;SDS011;6349;50.904;6.136;2023-03-11T07:20:03;2.87;;;1.80;;
12567;SDS011;6349;50.904;6.136;2023-03-11T07:22:04;4.83;;;1.90;;
12567;SDS011;6349;50.904;6.136;2023-03-11T07:24:05;5.00;;;2.20;;
12567;SDS011;6349;50.904;6.136;2023-03-11T07:26:07;3.10;;;1.80;;
12567;SDS011;6349;50.904;6.136;2023-03-11T07:28:09;4.20;;;2.20;;
12567;SDS011;6349;50.904;6.136;2023-03-11T07:30:10;5.57;;;2.30;;
12567;SDS011;6349;50.904;6.136;2023-03-11T07:32:11;5.07;;;2.30;;
12567;SDS011;6349;50.904;6.136;2023-03-11T07:34:11;4.10;;;2.27;;
12567;SDS011;6349;50.904;6.136;2023-03-11T07:36:13;4.97;;;2.07;;
12567;SDS011;6349;50.904;6.136;2023-03-11T07:38:16;2.90;;;2.00;;
12567;SDS011;6349;50.904;6.136;2023-03-11T07:40:17;7.20;;;2.37;;
12567;SDS011;6349;50.904;6.136;2023-03-11T07:42:17;3.87;;;1.83;;
12567;SDS011;6349;50.904;6.136;2023-03-11T07:44:18;5.47;;;2.10;;
12567;SDS011;6349;50.904;6.136;2023-03-11T07:46:19;4.33;;;2.10;;
12567;SDS011;6349;50.904;6.136;2023-03-11T07:48:21;5.33;;;2.00;;
12567;SDS011;6349;50.904;6.136;2023-03-11T07:50:22;3.77;;;2.13;;
12567;SDS011;6349;50.904;6.136;2023-03-11T07:52:23;2.27;;;1.77;;
12567;SDS011;6349;50.904;6.136;2023-03-11T07:54:25;3.00;;;1.90;;
12567;SDS011;6349;50.904;6.136;2023-03-11T07:56:29;5.43;;;2.37;;
12567;SDS011;6349;50.904;6.136;2023-03-11T07:58:32;5.43;;;2.30;;
12567;SDS011;6349;50.904;6.136;2023-03-11T08:00:34;3.90;;;2.20;;
12567;SDS011;6349;50.904;6.136;2023-03-11T08:02:38;2.77;;;2.10;;
12567;SDS011;6349;50.904;6.136;2023-03-11T08:04:39;4.23;;;2.03;;
12567;SDS011;6349;50.904;6.136;2023-03-11T08:06:42;3.57;;;2.13;;
12567;SDS011;6349;50.904;6.136;2023-03-11T08:08:46;3.53;;;2.17;;
12567;SDS011;6349;50.904;6.136;2023-03-11T08:10:47;3.87;;;2.20;;
12567;SDS011;6349;50.904;6.136;2023-03-11T08:12:49;3.57;;;1.77;;
12567;SDS011;6349;50.904;6.136;2023-03-11T08:14:51;3.97;;;2.10;;
12567;SDS011;6349;50.904;6.136;2023-03-11T08:16:52;4.57;;;2.33;;
12567;SDS011;6349;50.904;6.136;2023-03-11T08:18:54;3.53;;;2.10;;
12567;SDS011;6349;50.904;6.136;2023-03-11T08:20:56;3.07;;;2.00;;
12567;SDS011;6349;50.904;6.136;2023-03-11T08:22:58;3.33;;;2.10;;
12567;SDS011;6349;50.904;6.136;2023-03-11T08:25:00;2.80;;;2.10;;
12567;SDS011;6349;50.904;6.136;2023-03-11T08:27:01;4.50;;;2.30;;
12567;SDS011;6349;50.904;6.136;2023-03-11T08:29:03;2.77;;;2.27;;
12567;SDS011;6349;50.904;6.136;2023-03-11T08:31:13;2.30;;;1.73;;
12567;SDS011;6349;50.904;6.136;2023-03-11T08:33:16;3.80;;;1.87;;
12567;SDS011;6349;50.904;6.136;2023-03-11T08:35:17;2.93;;;1.80;;
12567;SDS011;6349;50.904;6.136;2023-03-11T08:37:19;3.87;;;2.03;;
12567;SDS011;6349;50.904;6.136;2023-03-11T08:39:21;2.60;;;1.80;;
12567;SDS011;6349;50.904;6.136;2023-03-11T08:41:24;4.13;;;1.90;;
12567;SDS011;6349;50.904;6.136;2023-03-11T08:43:25;3.60;;;1.80;;
12567;SDS011;6349;50.904;6.136;2023-03-11T08:45:27;2.97;;;1.90;;
12567;SDS011;6349;50.904;6.136;2023-03-11T08:47:32;5.03;;;2.10;;
12567;SDS011;6349;50.904;6.136;2023-03-11T08:49:36;2.47;;;1.70;;
12567;SDS011;6349;50.904;6.136;2023-03-11T08:51:38;1.77;;;1.60;;
12567;SDS011;6349;50.904;6.136;2023-03-11T08:53:40;2.60;;;1.90;;
12567;SDS011;6349;50.904;6.136;2023-03-11T08:55:41;2.47;;;1.50;;
12567;SDS011;6349;50.904;6.136;2023-03-11T08:57:43;1.73;;;1.50;;
12567;SDS011;6349;50.904;6.136;2023-03-11T08:59:45;1.97;;;1.10;;
12567;SDS011;6349;50.904;6.136;2023-03-11T09:01:46;3.33;;;1.40;;
12567;SDS011;6349;50.904;6.136;2023-03-11T09:03:48;2.37;;;1.33;;
12567;SDS011;6349;50.904;6.136;2023-03-11T09:05:55;2.03;;;1.30;;
12567;SDS011;6349;50.904;6.136;2023-03-11T09:07:57;2.57;;;1.43;;
12567;SDS011;6349;50.904;6.136;2023-03-11T09:09:59;2.97;;;1.70;;
12567;SDS011;6349;50.904;6.136;2023-03-11T09:12:00;3.10;;;1.60;;
12567;SDS011;6349;50.904;6.136;2023-03-11T09:14:02;1.77;;;1.30;;
12567;SDS011;6349;50.904;6.136;2023-03-11T09:16:06;2.13;;;1.20;;
12567;SDS011;6349;50.904;6.136;2023-03-11T09:18:13;2.27;;;1.23;;
12567;SDS011;6349;50.904;6.136;2023-03-11T09:20:15;1.47;;;1.20;;
12567;SDS011;6349;50.904;6.136;2023-03-11T09:22:17;2.27;;;1.20;;
12567;SDS011;6349;50.904;6.136;2023-03-11T09:24:18;3.33;;;1.00;;
12567;SDS011;6349;50.904;6.136;2023-03-11T09:26:20;2.57;;;1.10;;
12567;SDS011;6349;50.904;6.136;2023-03-11T09:28:22;1.23;;;0.80;;
12567;SDS011;6349;50.904;6.136;2023-03-11T09:30:26;0.83;;;0.70;;
12567;SDS011;6349;50.904;6.136;2023-03-11T09:32:28;1.63;;;1.00;;
12567;SDS011;6349;50.904;6.136;2023-03-11T09:34:31;3.70;;;1.03;;
12567;SDS011;6349;50.904;6.136;2023-03-11T09:36:32;1.43;;;0.93;;
12567;SDS011;6349;50.904;6.136;2023-03-11T09:38:34;2.77;;;0.70;;
12567;SDS011;6349;50.904;6.136;2023-03-11T09:40:41;2.47;;;0.80;;
12567;SDS011;6349;50.904;6.136;2023-03-11T09:43:15;2.27;;;0.80;;
12567;SDS011;6349;50.904;6.136;2023-03-11T09:45:51;1.57;;;0.90;;
12567;SDS011;6349;50.904;6.136;2023-03-11T09:50:50;2.13;;;1.00;;
12567;SDS011;6349;50.904;6.136;2023-03-11T09:53:25;2.40;;;1.00;;
12567;SDS011;6349;50.904;6.136;2023-03-11T09:55:49;0.87;;;0.63;;
12567;SDS011;6349;50.904;6.136;2023-03-11T09:57:53;1.87;;;1.00;;
12567;SDS011;6349;50.904;6.136;2023-03-11T10:00:21;2.33;;;0.67;;
12567;SDS011;6349;50.904;6.136;2023-03-11T10:02:30;1.93;;;0.70;;
12567;SDS011;6349;50.904;6.136;2023-03-11T10:04:39;1.57;;;0.80;;
12567;SDS011;6349;50.904;6.136;2023-03-11T10:06:54;2.20;;;0.80;;
12567;SDS011;6349;50.904;6.136;2023-03-11T10:09:31;1.57;;;0.77;;
12567;SDS011;6349;50.904;6.136;2023-03-11T10:16:33;3.30;;;1.30;;
12567;SDS011;6349;50.904;6.136;2023-03-11T10:21:08;2.07;;;1.00;;
12567;SDS011;6349;50.904;6.136;2023-03-11T10:23:28;1.60;;;0.90;;
12567;SDS011;6349;50.904;6.136;2023-03-11T10:26:11;1.57;;;0.90;;
12567;SDS011;6349;50.904;6.136;2023-03-11T10:28:20;2.70;;;0.67;;
12567;SDS011;6349;50.904;6.136;2023-03-11T10:30:26;0.80;;;0.50;;
12567;SDS011;6349;50.904;6.136;2023-03-11T10:32:35;2.83;;;0.70;;
12567;SDS011;6349;50.904;6.136;2023-03-11T10:34:49;0.73;;;0.40;;
12567;SDS011;6349;50.904;6.136;2023-03-11T10:37:32;1.57;;;0.70;;
12567;SDS011;6349;50.904;6.136;2023-03-11T10:39:39;1.50;;;0.80;;
12567;SDS011;6349;50.904;6.136;2023-03-11T10:41:42;1.30;;;0.80;;
12567;SDS011;6349;50.904;6.136;2023-03-11T10:43:56;1.87;;;0.67;;
12567;SDS011;6349;50.904;6.136;2023-03-11T10:46:04;1.30;;;0.80;;
12567;SDS011;6349;50.904;6.136;2023-03-11T10:48:19;0.93;;;0.53;;
12567;SDS011;6349;50.904;6.136;2023-03-11T10:50:21;0.70;;;0.47;;
12567;SDS011;6349;50.904;6.136;2023-03-11T10:52:22;2.03;;;1.00;;
12567;SDS011;6349;50.904;6.136;2023-03-11T10:54:40;1.83;;;1.13;;
12567;SDS011;6349;50.904;6.136;2023-03-11T10:56:45;2.50;;;1.30;;
12567;SDS011;6349;50.904;6.136;2023-03-11T10:58:58;1.00;;;0.90;;
12567;SDS011;6349;50.904;6.136;2023-03-11T11:01:16;0.70;;;0.50;;
12567;SDS011;6349;50.904;6.136;2023-03-11T11:03:20;0.97;;;0.60;;
12567;SDS011;6349;50.904;6.136;2023-03-11T11:05:27;2.43;;;0.60;;
12567;SDS011;6349;50.904;6.136;2023-03-11T11:07:33;1.97;;;0.73;;
12567;SDS011;6349;50.904;6.136;2023-03-11T11:09:36;1.30;;;0.60;;
12567;SDS011;6349;50.904;6.136;2023-03-11T11:11:37;1.30;;;0.60;;
12567;SDS011;6349;50.904;6.136;2023-03-11T11:13:38;0.90;;;0.60;;
12567;SDS011;6349;50.904;6.136;2023-03-11T11:15:40;2.40;;;0.80;;
12567;SDS011;6349;50.904;6.136;2023-03-11T11:17:50;1.90;;;0.73;;
12567;SDS011;6349;50.904;6.136;2023-03-11T11:19:54;2.33;;;0.80;;
12567;SDS011;6349;50.904;6.136;2023-03-11T11:21:57;1.63;;;0.70;;
12567;SDS011;6349;50.904;6.136;2023-03-11T11:24:07;0.80;;;0.60;;
12567;SDS011;6349;50.904;6.136;2023-03-11T11:26:26;2.00;;;0.90;;
12567;SDS011;6349;50.904;6.136;2023-03-11T11:28:26;2.77;;;0.87;;
12567;SDS011;6349;50.904;6.136;2023-03-11T11:30:28;1.13;;;0.53;;
12567;SDS011;6349;50.904;6.136;2023-03-11T11:32:28;2.03;;;0.80;;
12567;SDS011;6349;50.904;6.136;2023-03-11T11:34:30;0.80;;;0.50;;
12567;SDS011;6349;50.904;6.136;2023-03-11T11:36:33;1.47;;;0.80;;
12567;SDS011;6349;50.904;6.136;2023-03-11T11:38:36;1.67;;;0.87;;
12567;SDS011;6349;50.904;6.136;2023-03-11T11:40:40;1.03;;;0.50;;
12567;SDS011;6349;50.904;6.136;2023-03-11T11:42:43;1.43;;;0.83;;
12567;SDS011;6349;50.904;6.136;2023-03-11T11:44:59;1.50;;;0.87;;
12567;SDS011;6349;50.904;6.136;2023-03-11T11:47:16;2.40;;;0.60;;
12567;SDS011;6349;50.904;6.136;2023-03-11T11:49:24;1.33;;;0.60;;
12567;SDS011;6349;50.904;6.136;2023-03-11T11:51:31;1.53;;;0.90;;
12567;SDS011;6349;50.904;6.136;2023-03-11T11:53:42;2.07;;;0.70;;
12567;SDS011;6349;50.904;6.136;2023-03-11T11:56:08;1.97;;;0.93;;
12567;SDS011;6349;50.904;6.136;2023-03-11T11:58:09;1.30;;;0.93;;
12567;SDS011;6349;50.904;6.136;2023-03-11T12:00:23;1.70;;;0.70;;
12567;SDS011;6349;50.904;6.136;2023-03-11T12:02:38;0.90;;;0.60;;
12567;SDS011;6349;50.904;6.136;2023-03-11T12:05:15;1.77;;;0.70;;
12567;SDS011;6349;50.904;6.136;2023-03-11T12:07:36;3.30;;;0.63;;
12567;SDS011;6349;50.904;6.136;2023-03-11T12:12:51;2.00;;;0.80;;
12567;SDS011;6349;50.904;6.136;2023-03-11T12:15:14;0.63;;;0.53;;
12567;SDS011;6349;50.904;6.136;2023-03-11T12:17:21;2.63;;;0.60;;
12567;SDS011;6349;50.904;6.136;2023-03-11T12:19:56;1.03;;;0.57;;
12567;SDS011;6349;50.904;6.136;2023-03-11T12:21:58;1.13;;;0.70;;
12567;SDS011;6349;50.904;6.136;2023-03-11T12:24:42;1.23;;;0.60;;
12567;SDS011;6349;50.904;6.136;2023-03-11T12:26:58;1.80;;;0.63;;
12567;SDS011;6349;50.904;6.136;2023-03-11T12:29:38;1.53;;;0.77;;
12567;SDS011;6349;50.904;6.136;2023-03-11T12:31:32;3.30;;;0.90;;
12567;SDS011;6349;50.904;6.136;2023-03-11T12:33:55;0.80;;;0.60;;
12567;SDS011;6349;50.904;6.136;2023-03-11T12:35:59;1.80;;;0.70;;
12567;SDS011;6349;50.904;6.136;2023-03-11T12:38:14;2.20;;;0.80;;
12567;SDS011;6349;50.904;6.136;2023-03-11T12:42:54;1.77;;;0.97;;
12567;SDS011;6349;50.904;6.136;2023-03-11T12:44:56;0.70;;;0.60;;
12567;SDS011;6349;50.904;6.136;2023-03-11T12:47:38;3.67;;;0.97;;
12567;SDS011;6349;50.904;6.136;2023-03-11T12:49:40;2.57;;;0.90;;
12567;SDS011;6349;50.904;6.136;2023-03-11T12:56:44;1.37;;;0.73;;
12567;SDS011;6349;50.904;6.136;2023-03-11T12:59:03;1.70;;;0.80;;
12567;SDS011;6349;50.904;6.136;2023-03-11T13:01:33;1.20;;;0.60;;
12567;SDS011;6349;50.904;6.136;2023-03-11T13:03:53;1.83;;;0.90;;
12567;SDS011;6349;50.904;6.136;2023-03-11T13:06:14;3.90;;;1.10;;
12567;SDS011;6349;50.904;6.136;2023-03-11T13:10:56;1.43;;;0.93;;